Meteopozuelo

Informes METAR próximos a MeteoPozuelo

 

LEVS - Cuatro Vientos (Madrid) España
Actualización: 20/09/2021 09:30
Despejado
Despejado
 Viento del NE
Viento: NE 6 km/h
Temperatura: 17°C
Punto de Rocío: 8°C
Humedad: 56%
Barómetro: 1022 hPa
Resumen: Despejado
Visibility: greater than 10 km
2021/09/20 07:30 LEVS 200730Z 04003KT 320V110 CAVOK 17/08 Q1022
LEGT - Getafe (Madrid ) España
Actualización: 20/09/2021 09:30
Despejado
Despejado
 Viento del NNE
Viento: NNE 19 km/h
Temperatura: 16°C
Punto de Rocío: 9°C
Humedad: 63%
Barómetro: 1022 hPa
Resumen: Despejado
Visibility: greater than 10 km
2021/09/20 07:30 LEGT 200730Z 03010KT CAVOK 16/09 Q1022
 
LEMD - Barajas (Madrid) España
Actualización: 20/09/2021 09:30
Despejado
Despejado
 Viento del NNE
Viento: NNE 6 km/h
Temperatura: 16°C
Punto de Rocío: 9°C
Humedad: 63%
Barómetro: 1022 hPa
Resumen: Despejado
Visibility: greater than 10 km
2021/09/20 07:30 LEMD 200730Z 02003KT CAVOK 16/09 Q1022 NOSIG
LETO - Torrejon de Ardoz (Madrid) España
Actualización: 20/09/2021 09:30
Despejado
Despejado
 Viento del NE
Viento: NE 19 km/h
Temperatura: 16°C
Punto de Rocío: 9°C
Humedad: 63%
Barómetro: 1022 hPa
Resumen: Despejado
Visibility: greater than 10 km
2021/09/20 07:30 LETO 200730Z 05010KT CAVOK 16/09 Q1022 NOSIG
 
LECV - Colmenar Viejo (Madrid)
Actualización: 20/09/2021 09:30
Despejado
Despejado
 Viento del varies
Viento: varies 2 km/h
Temperatura: 16°C
Punto de Rocío: 6°C
Humedad: 52%
Barómetro: 1022 hPa
Resumen: Despejado
Visibility: greater than 10 km
2021/09/20 07:30 LECV 200730Z VRB01KT CAVOK 16/06 Q1022